Decoded Metar for FMCZ (DZAOUDZI in MAYOTTE ISLAND) (IATA:DZA) | Meteo·Mobile Aviation Weather
aviador You're here:

FMCZ Decoded Metar

DZAOUDZI in MAYOTTE ISLAND
Report Time2019-07-16 00:30:00
UTC Time2019-07-16 01:00:19
Flight Rules vfr VFR
Wind150° at 05 kt
W.Decomp.*RWY 16: 5.0 kt HW 0.2 kt LCW
Visibility9999 m
Phenomena:N/A
Clouds:N/A
Expected CloudBase > 2,000 ft AGL from Temp-Dew spread
CeilingNone
Temp24°C (ISA +9)
Dew Point19°C (74% RH)
QNH1018 hPa
Density Alt1,194 ft
Elevation23 ft
Report Wrong Elevation
Raw Report
FMCZ 160030Z AUTO 15005KT CAVOK 24/19 Q1018 NOSIG=

Extra information for FMCZ:More info

Metar Taf Metar & Taf Last 4 Metars F.Rules Stats Wind Profile Meteogram Temp Stats Airport Information Weather charts Add Link Nearby VenuesMetar ALERT Operation Metar Decoded Social comments